Time;durP1;ratioP1;P1;durP2;ratioP2;P2;SDS_P1;SDS_P2;PMS_P1;PMS_P2;Temp;Humidity;BMP_temperature;BMP_pressure;BME280_temperature;BME280_humidity;BME280_pressure;Samples;Min_cycle;Max_cycle;Signal;HPM_P1;HPM_P2
2023/09/13 00:00:17;;;;;;;14.23;10.40;;;;;;;21.43;100.00;101176.63;5099939;28;20075;-69
2023/09/13 00:02:43;;;;;;;15.10;11.70;;;;;;;21.44;100.00;101180.91;5100582;28;20059;-69
2023/09/13 00:05:10;;;;;;;13.57;11.00;;;;;;;21.39;100.00;101179.91;5089985;28;20550;-68
2023/09/13 00:07:37;;;;;;;15.48;11.05;;;;;;;21.36;100.00;101182.97;5106201;28;20048;-69
2023/09/13 00:10:04;;;;;;;15.93;11.80;;;;;;;21.35;100.00;101182.16;5091141;28;20784;-69
2023/09/13 00:12:30;;;;;;;16.33;11.73;;;;;;;21.30;100.00;101185.44;5119554;27;20139;-69
2023/09/13 00:14:57;;;;;;;16.77;11.73;;;;;;;21.31;100.00;101184.41;5093005;27;20076;-70
2023/09/13 00:17:23;;;;;;;16.17;11.27;;;;;;;21.34;100.00;101191.19;5100030;28;20143;-68
2023/09/13 00:19:51;;;;;;;14.10;11.38;;;;;;;21.36;100.00;101185.63;5094624;28;20237;-67
2023/09/13 00:22:17;;;;;;;14.75;11.10;;;;;;;21.37;100.00;101182.75;5086954;28;20101;-68
2023/09/13 00:24:45;;;;;;;16.80;12.50;;;;;;;21.34;100.00;101183.16;5099599;28;20486;-68
2023/09/13 00:27:11;;;;;;;17.17;13.90;;;;;;;21.33;100.00;101176.22;5101981;27;20446;-69
2023/09/13 00:29:38;;;;;;;15.38;12.13;;;;;;;21.32;100.00;101178.03;5099772;28;20059;-69
2023/09/13 00:32:05;;;;;;;16.13;12.85;;;;;;;21.32;100.00;101175.38;5089556;28;20109;-68
2023/09/13 00:34:31;;;;;;;15.82;11.90;;;;;;;21.31;100.00;101172.94;5093979;28;20143;-71
2023/09/13 00:36:58;;;;;;;16.25;12.88;;;;;;;21.30;100.00;101174.75;5103590;27;20143;-70
2023/09/13 00:39:25;;;;;;;15.50;11.90;;;;;;;21.32;100.00;101180.72;5095135;27;20051;-70
2023/09/13 00:41:51;;;;;;;13.90;12.32;;;;;;;21.31;100.00;101170.25;5108480;27;20039;-71
2023/09/13 00:44:18;;;;;;;15.88;12.57;;;;;;;21.30;100.00;101185.44;5099892;27;20062;-71
2023/09/13 00:46:45;;;;;;;14.80;12.32;;;;;;;21.30;100.00;101180.09;5090993;28;20451;-70
2023/09/13 00:49:12;;;;;;;15.40;10.93;;;;;;;21.30;100.00;101176.63;5084803;28;20051;-69
2023/09/13 00:51:39;;;;;;;14.15;11.20;;;;;;;21.31;100.00;101173.75;5087126;28;20040;-68
2023/09/13 00:54:07;;;;;;;14.48;11.32;;;;;;;21.32;100.00;101171.88;5095194;28;20052;-69
2023/09/13 00:56:35;;;;;;;16.90;12.65;;;;;;;21.33;100.00;101168.22;5081841;28;20559;-67
2023/09/13 00:59:02;;;;;;;16.08;13.48;;;;;;;21.34;100.00;101169.81;5090316;28;20151;-68
2023/09/13 01:01:30;;;;;;;15.48;12.35;;;;;;;21.29;100.00;101169.66;5079635;28;20044;-69
2023/09/13 01:03:57;;;;;;;17.38;12.10;;;;;;;21.28;100.00;101166.16;5083872;28;20059;-68
2023/09/13 01:06:24;;;;;;;17.10;13.68;;;;;;;21.28;100.00;101168.81;5093523;28;20209;-69
2023/09/13 01:08:50;;;;;;;16.70;13.30;;;;;;;21.25;100.00;101165.78;5092276;28;20048;-68
2023/09/13 01:11:17;;;;;;;18.85;14.02;;;;;;;21.27;100.00;101183.19;5105003;27;20078;-69
2023/09/13 01:13:44;;;;;;;17.55;13.13;;;;;;;21.25;100.00;101185.25;5100066;27;20148;-69
2023/09/13 01:16:29;;;;;;;16.45;13.25;;;;;;;21.27;100.00;101177.06;5093961;28;20043;-68
2023/09/13 01:19:11;;;;;;;18.60;14.13;;;;;;;21.20;100.00;101177.03;5079447;28;20043;-69
2023/09/13 01:22:04;;;;;;;18.83;13.10;;;;;;;21.19;100.00;101174.56;5089951;28;20803;-69
2023/09/13 01:24:47;;;;;;;17.83;13.52;;;;;;;21.17;100.00;101180.16;5070084;28;20551;-68
2023/09/13 01:27:26;;;;;;;16.50;13.23;;;;;;;21.16;100.00;101188.34;5101182;28;20124;-67
2023/09/13 01:29:55;;;;;;;18.17;14.40;;;;;;;21.10;100.00;101193.47;5073861;28;20044;-67
2023/09/13 01:32:21;;;;;;;15.85;12.55;;;;;;;21.12;100.00;101188.75;5084995;28;20044;-69
2023/09/13 01:34:47;;;;;;;18.13;12.98;;;;;;;21.13;100.00;101189.59;5086705;28;20068;-69
2023/09/13 01:37:14;;;;;;;17.40;12.82;;;;;;;21.11;100.00;101192.47;5084833;28;20576;-69
2023/09/13 01:39:41;;;;;;;19.80;15.00;;;;;;;21.09;100.00;101191.00;5086119;28;20105;-69
2023/09/13 01:42:10;;;;;;;19.25;14.40;;;;;;;21.03;100.00;101183.84;5085919;28;20051;-69
2023/09/13 01:44:40;;;;;;;17.52;14.00;;;;;;;21.00;100.00;101173.59;5082633;28;20079;-69
2023/09/13 01:47:08;;;;;;;16.83;13.63;;;;;;;21.00;100.00;101182.41;5093888;28;20384;-68
2023/09/13 01:49:36;;;;;;;19.67;13.93;;;;;;;20.99;100.00;101186.09;5094683;28;20066;-69
2023/09/13 01:52:04;;;;;;;17.95;13.70;;;;;;;21.00;100.00;101184.28;5093092;28;20047;-69
2023/09/13 01:54:35;;;;;;;19.13;14.60;;;;;;;20.98;100.00;101179.13;5084235;28;20138;-68
2023/09/13 01:57:02;;;;;;;18.33;13.82;;;;;;;20.98;100.00;101178.31;5078446;28;20135;-69
2023/09/13 01:59:29;;;;;;;17.27;13.32;;;;;;;20.98;100.00;101183.66;5090191;28;20123;-68
2023/09/13 02:01:55;;;;;;;16.92;12.93;;;;;;;21.00;100.00;101182.41;5086624;28;20169;-69
2023/09/13 02:04:22;;;;;;;18.95;14.40;;;;;;;20.99;100.00;101191.44;5093083;28;20570;-69
2023/09/13 02:06:48;;;;;;;18.55;12.88;;;;;;;20.99;100.00;101191.44;5093486;28;20500;-68
2023/09/13 02:09:16;;;;;;;20.15;14.48;;;;;;;21.00;100.00;101190.41;5100957;28;20559;-70
2023/09/13 02:11:42;;;;;;;17.50;13.82;;;;;;;20.98;100.00;101200.47;5084949;28;20124;-70
2023/09/13 02:14:09;;;;;;;18.35;13.15;;;;;;;21.00;100.00;101197.59;5090627;28;20143;-69
2023/09/13 02:16:35;;;;;;;16.92;13.68;;;;;;;21.03;100.00;101207.84;5090606;28;20363;-70
2023/09/13 02:19:04;;;;;;;19.27;13.73;;;;;;;21.06;100.00;101220.78;5086805;28;21225;-73
2023/09/13 02:21:31;;;;;;;;;;;;;;;21.00;100.00;101217.09;5092231;28;20075;-73
2023/09/13 02:23:57;;;;;;;28.45;15.93;;;;;;;20.77;100.00;101206.00;5078695;28;20014;-71
2023/09/13 02:26:24;;;;;;;23.15;16.02;;;;;;;20.74;100.00;101212.56;5087528;28;20659;-72
2023/09/13 02:28:52;;;;;;;27.58;16.90;;;;;;;20.70;100.00;101217.50;5099421;28;20051;-72
2023/09/13 02:31:24;;;;;;;19.80;14.98;;;;;;;20.69;100.00;101207.84;5099869;28;20706;-76
2023/09/13 02:33:50;;;;;;;25.52;15.98;;;;;;;20.63;100.00;101216.66;5086326;28;20388;-75
2023/09/13 02:36:17;;;;;;;25.73;14.85;;;;;;;20.51;100.00;101218.25;5092505;28;20112;-73
2023/09/13 02:38:43;;;;;;;18.40;15.13;;;;;;;20.45;100.00;101217.22;5083447;28;20052;-73
2023/09/13 02:41:10;;;;;;;19.42;13.77;;;;;;;20.47;100.00;101215.16;5087695;28;20131;-73
2023/09/13 02:43:39;;;;;;;22.67;14.93;;;;;;;20.55;100.00;101214.97;5081722;28;20079;-72
2023/09/13 02:46:05;;;;;;;21.65;15.13;;;;;;;20.58;100.00;101219.09;5087549;28;20044;-73
2023/09/13 02:48:32;;;;;;;19.45;14.93;;;;;;;20.63;100.00;101221.97;5086867;28;20044;-73
2023/09/13 02:50:58;;;;;;;18.98;13.45;;;;;;;20.58;100.00;101207.59;5080546;28;20052;-72
2023/09/13 02:53:25;;;;;;;17.83;13.13;;;;;;;20.61;100.00;101212.56;5090678;28;20043;-75
2023/09/13 02:55:51;;;;;;;15.43;12.27;;;;;;;20.65;100.00;101214.59;5083398;28;20071;-74
2023/09/13 02:58:18;;;;;;;17.63;13.50;;;;;;;20.66;100.00;101213.59;5088180;28;20484;-74
2023/09/13 03:00:44;;;;;;;14.70;12.65;;;;;;;20.69;100.00;101215.03;5083899;28;20044;-71
2023/09/13 03:03:11;;;;;;;16.98;12.93;;;;;;;20.63;100.00;101215.84;5079764;28;20390;-75
2023/09/13 03:05:37;;;;;;;18.23;13.07;;;;;;;20.66;100.00;101218.06;5082004;28;20155;-72
2023/09/13 03:08:04;;;;;;;16.80;13.23;;;;;;;20.62;100.00;101223.03;5079594;28;20107;-75
2023/09/13 03:10:30;;;;;;;19.52;14.10;;;;;;;20.62;100.00;101225.69;5097103;28;20051;-75
2023/09/13 03:12:57;;;;;;;21.98;13.85;;;;;;;20.63;100.00;101223.84;5089291;28;20168;-74
2023/09/13 03:15:23;;;;;;;20.00;14.35;;;;;;;20.61;100.00;101210.72;5097879;28;20047;-75
2023/09/13 03:17:50;;;;;;;23.60;14.32;;;;;;;20.64;100.00;101222.78;5088413;28;20147;-74
2023/09/13 03:20:17;;;;;;;19.85;14.82;;;;;;;20.61;100.00;101221.38;5081337;28;20075;-72
2023/09/13 03:22:43;;;;;;;24.73;15.27;;;;;;;20.59;100.00;101222.56;5101971;28;20120;-73
2023/09/13 03:25:10;;;;;;;19.40;14.18;;;;;;;20.61;100.00;101217.88;5081649;28;20066;-74
2023/09/13 03:27:36;;;;;;;22.70;15.32;;;;;;;20.62;100.00;101216.84;5094225;28;20514;-74
2023/09/13 03:30:03;;;;;;;25.65;18.20;;;;;;;20.62;100.00;101215.03;5081491;28;20135;-72
2023/09/13 03:32:30;;;;;;;26.02;18.67;;;;;;;20.52;100.00;101215.38;5078453;28;20071;-75
2023/09/13 03:34:56;;;;;;;29.33;21.02;;;;;;;20.52;100.00;101214.53;5085616;28;20560;-73
2023/09/13 03:37:23;;;;;;;27.85;21.60;;;;;;;20.54;100.00;101216.00;5094154;28;20085;-72
2023/09/13 03:39:49;;;;;;;28.08;20.60;;;;;;;20.53;100.00;101214.34;5088657;28;20508;-74
2023/09/13 03:42:16;;;;;;;36.13;25.42;;;;;;;20.46;100.00;101215.38;5079591;28;20048;-73
2023/09/13 03:44:42;;;;;;;39.65;24.60;;;;;;;20.45;100.00;101216.41;5081760;28;20044;-71
2023/09/13 03:47:08;;;;;;;39.33;26.73;;;;;;;20.38;100.00;101221.69;5075669;28;21400;-71
2023/09/13 03:49:35;;;;;;;36.40;27.30;;;;;;;20.30;100.00;101222.69;5088769;28;20048;-73
2023/09/13 03:52:01;;;;;;;44.00;27.90;;;;;;;20.29;100.00;101215.75;5084094;28;20040;-73
2023/09/13 03:54:28;;;;;;;36.08;27.85;;;;;;;20.33;100.00;101226.81;5085118;28;20439;-73
2023/09/13 03:56:54;;;;;;;37.47;27.00;;;;;;;20.34;100.00;101223.94;5093647;28;20146;-72
2023/09/13 03:59:21;;;;;;;36.28;26.98;;;;;;;20.38;100.00;101227.03;5084686;28;20135;-74
2023/09/13 04:01:47;;;;;;;34.80;27.15;;;;;;;20.38;100.00;101224.34;5079557;28;20664;-70
2023/09/13 04:04:13;;;;;;;37.70;27.90;;;;;;;20.37;100.00;101222.72;5076928;28;20055;-72
2023/09/13 04:06:40;;;;;;;36.30;27.25;;;;;;;20.37;100.00;101227.25;5086539;28;20044;-73
2023/09/13 04:09:09;;;;;;;38.60;28.95;;;;;;;20.40;100.00;101214.31;5084662;28;20071;-72
2023/09/13 04:11:35;;;;;;;43.10;28.67;;;;;;;20.39;100.00;101209.22;5081603;28;20117;-73
2023/09/13 04:14:02;;;;;;;42.78;30.10;;;;;;;20.40;100.00;101208.19;5078641;28;20036;-72
2023/09/13 04:16:29;;;;;;;42.95;28.85;;;;;;;20.40;100.00;101214.31;5077062;28;20047;-71
2023/09/13 04:18:55;;;;;;;46.00;29.67;;;;;;;20.36;100.00;101207.75;5085503;28;20117;-73
2023/09/13 04:21:22;;;;;;;43.97;30.20;;;;;;;20.27;100.00;101215.13;5082537;28;20048;-73
2023/09/13 04:23:48;;;;;;;46.30;30.85;;;;;;;20.21;100.00;101210.59;5096399;28;20135;-69
2023/09/13 04:26:21;;;;;;;44.42;30.52;;;;;;;20.15;100.00;101211.41;5100679;28;20138;-68
2023/09/13 04:28:47;;;;;;;45.45;32.80;;;;;;;20.10;100.00;101214.66;5078066;28;20092;-72
2023/09/13 04:31:14;;;;;;;54.15;33.70;;;;;;;20.05;100.00;101216.28;5098437;28;20489;-72
2023/09/13 04:33:53;;;;;;;53.50;34.45;;;;;;;20.03;100.00;101218.31;5095118;28;20052;-72
2023/09/13 04:36:20;;;;;;;58.70;37.08;;;;;;;19.94;100.00;101217.69;5096954;28;20061;-73
2023/09/13 04:38:48;;;;;;;54.45;35.15;;;;;;;19.95;100.00;101212.16;5085438;28;20699;-72
2023/09/13 04:41:16;;;;;;;60.95;38.40;;;;;;;19.87;100.00;101206.97;5087206;28;20052;-71
2023/09/13 04:43:42;;;;;;;61.10;39.95;;;;;;;19.83;100.00;101210.25;5093839;28;20109;-68
2023/09/13 04:46:10;;;;;;;62.28;38.30;;;;;;;19.72;100.00;101212.47;5085990;28;20048;-72
2023/09/13 04:48:37;;;;;;;62.95;38.30;;;;;;;19.78;100.00;101210.00;5090151;28;20069;-73
2023/09/13 04:51:04;;;;;;;65.30;38.03;;;;;;;19.75;100.00;101214.72;5091136;28;20121;-70
2023/09/13 04:53:32;;;;;;;58.38;36.38;;;;;;;19.77;100.00;101216.38;5101753;28;20062;-72
2023/09/13 04:56:00;;;;;;;57.03;34.87;;;;;;;19.66;100.00;101215.03;5078508;28;20775;-73
2023/09/13 04:58:28;;;;;;;60.17;37.78;;;;;;;19.66;100.00;101218.53;5094824;28;20052;-72
2023/09/13 05:00:57;;;;;;;50.92;32.05;;;;;;;19.64;100.00;101227.72;5092344;28;20048;-72
2023/09/13 05:03:24;;;;;;;54.90;35.03;;;;;;;19.62;100.00;101235.94;5088472;28;20583;-71
2023/09/13 05:05:51;;;;;;;56.60;35.60;;;;;;;19.66;100.00;101237.19;5091180;28;20056;-72
2023/09/13 05:08:17;;;;;;;56.35;37.20;;;;;;;19.68;100.00;101227.16;5087015;28;20048;-74
2023/09/13 05:10:44;;;;;;;54.92;35.53;;;;;;;19.71;100.00;101239.25;5084621;28;20048;-72
2023/09/13 05:13:11;;;;;;;59.42;36.33;;;;;;;19.71;100.00;101240.09;5085123;28;20059;-73
2023/09/13 05:15:42;;;;;;;55.00;35.67;;;;;;;19.69;100.00;101236.75;5089566;28;20217;-73
2023/09/13 05:18:09;;;;;;;58.05;35.60;;;;;;;19.54;100.00;101244.03;5092139;28;20082;-72
2023/09/13 05:20:35;;;;;;;59.15;37.42;;;;;;;19.58;100.00;101237.31;5087131;28;20715;-72
2023/09/13 05:23:02;;;;;;;52.78;33.75;;;;;;;19.61;100.00;101236.94;5087291;28;20532;-72
2023/09/13 05:25:28;;;;;;;57.97;36.40;;;;;;;19.66;100.00;101244.31;5077994;28;20476;-71
2023/09/13 05:27:55;;;;;;;55.63;34.35;;;;;;;19.71;100.00;101244.56;5094145;28;20072;-72
2023/09/13 05:30:21;;;;;;;54.63;35.35;;;;;;;19.66;100.00;101239.84;5080228;28;20073;-73
2023/09/13 05:32:49;;;;;;;47.15;31.52;;;;;;;19.69;100.00;101243.94;5086722;28;20047;-68
2023/09/13 05:35:16;;;;;;;48.20;31.75;;;;;;;19.71;100.00;101248.06;5081034;28;20392;-71
2023/09/13 05:37:43;;;;;;;56.07;35.17;;;;;;;19.69;100.00;101241.28;5085934;28;20083;-71
2023/09/13 05:40:10;;;;;;;53.28;34.05;;;;;;;19.64;100.00;101247.19;5087137;28;20667;-72
2023/09/13 05:42:36;;;;;;;57.45;35.95;;;;;;;19.55;100.00;101246.50;5080389;28;20131;-72
2023/09/13 05:45:03;;;;;;;51.28;33.80;;;;;;;19.55;100.00;101256.34;5090694;28;20054;-71
2023/09/13 05:47:30;;;;;;;54.65;35.30;;;;;;;19.47;100.00;101253.84;5092694;28;20600;-72
2023/09/13 05:49:56;;;;;;;55.15;34.40;;;;;;;19.40;100.00;101264.41;5088717;28;20044;-71
2023/09/13 05:52:22;;;;;;;49.88;30.35;;;;;;;19.45;100.00;101258.53;5090802;28;20056;-69
2023/09/13 05:54:49;;;;;;;55.45;32.75;;;;;;;19.45;100.00;101262.00;5090948;28;20087;-71
2023/09/13 05:57:16;;;;;;;56.78;35.60;;;;;;;19.37;100.00;101259.50;5096303;28;20047;-72
2023/09/13 05:59:42;;;;;;;56.13;34.45;;;;;;;19.29;100.00;101270.28;5088723;28;20048;-72
2023/09/13 06:02:09;;;;;;;52.92;30.80;;;;;;;19.37;100.00;101272.81;5087583;28;20054;-73
2023/09/13 06:04:36;;;;;;;54.70;35.90;;;;;;;19.17;100.00;101270.00;5071622;28;20063;-70
2023/09/13 06:07:03;;;;;;;57.00;30.95;;;;;;;19.31;100.00;101276.25;5092667;28;20532;-72
2023/09/13 06:09:29;;;;;;;60.75;34.60;;;;;;;19.33;100.00;101290.16;5085465;28;20048;-73
2023/09/13 06:11:57;;;;;;;53.20;32.53;;;;;;;19.35;100.00;101294.25;5090764;28;20120;-71
2023/09/13 06:14:24;;;;;;;55.47;33.05;;;;;;;19.35;100.00;101288.94;5085311;28;20052;-72
2023/09/13 06:16:50;;;;;;;54.95;34.28;;;;;;;19.41;100.00;101291.88;5082344;28;20130;-72
2023/09/13 06:19:17;;;;;;;53.95;32.65;;;;;;;19.36;100.00;101295.91;5086487;28;20048;-75
2023/09/13 06:21:43;;;;;;;52.45;33.25;;;;;;;19.40;100.00;101298.19;5080914;28;20427;-70
2023/09/13 06:24:10;;;;;;;62.60;36.03;;;;;;;19.34;100.00;101311.22;5094124;28;20042;-71
2023/09/13 06:26:36;;;;;;;38.45;24.80;;;;;;;19.52;100.00;101315.25;5097166;28;20054;-70
2023/09/13 06:29:03;;;;;;;56.20;33.50;;;;;;;19.51;100.00;101316.28;5089869;28;20096;-71
2023/09/13 06:31:30;;;;;;;57.90;35.83;;;;;;;19.43;100.00;101324.41;5104684;28;20104;-69
2023/09/13 06:34:01;;;;;;;46.30;30.08;;;;;;;19.53;100.00;101320.38;5091497;28;20048;-71
2023/09/13 06:36:30;;;;;;;60.22;33.15;;;;;;;19.53;100.00;101317.72;5096688;28;20101;-71
2023/09/13 06:38:57;;;;;;;57.03;33.60;;;;;;;19.54;100.00;101323.88;5087231;28;20493;-71
2023/09/13 06:41:24;;;;;;;54.10;32.08;;;;;;;19.54;100.00;101316.72;5088136;28;20047;-70
2023/09/13 06:43:51;;;;;;;56.13;34.30;;;;;;;19.51;100.00;101334.91;5088884;28;20116;-71
2023/09/13 06:46:34;;;;;;;55.50;32.90;;;;;;;19.47;100.00;101331.00;5083096;28;20105;-70
2023/09/13 06:49:02;;;;;;;52.10;29.05;;;;;;;19.57;100.00;101342.13;5089011;28;20051;-71
2023/09/13 06:51:30;;;;;;;52.17;31.40;;;;;;;19.54;100.00;101345.16;5086525;28;20101;-71
2023/09/13 06:54:01;;;;;;;53.03;31.77;;;;;;;19.52;100.00;101341.84;5085573;28;20127;-71
2023/09/13 06:56:31;;;;;;;52.35;29.83;;;;;;;19.52;100.00;101347.19;5083168;28;20094;-70
2023/09/13 06:59:03;;;;;;;46.05;29.33;;;;;;;19.61;100.00;101358.53;5080724;28;20485;-72
2023/09/13 07:01:32;;;;;;;51.13;29.77;;;;;;;19.52;100.00;101360.47;5085557;28;20146;-72
2023/09/13 07:04:19;;;;;;;46.03;28.23;;;;;;;19.70;100.00;101366.16;5085461;28;20080;-71
2023/09/13 07:06:57;;;;;;;;;;;;;;;19.78;100.00;101373.22;5084499;28;20056;-70
2023/09/13 07:09:24;;;;;;;26.80;16.60;;;;;;;19.70;100.00;101400.78;5083937;28;20649;-71
2023/09/13 07:11:51;;;;;;;11.93;7.53;;;;;;;19.60;100.00;101416.25;5095263;28;20052;-71
2023/09/13 07:14:18;;;;;;;3.35;1.90;;;;;;;19.30;100.00;101415.53;5071518;28;20131;-72
2023/09/13 07:16:44;;;;;;;3.67;1.20;;;;;;;19.08;100.00;101435.97;5096355;28;20113;-72
2023/09/13 07:19:11;;;;;;;2.47;1.08;;;;;;;18.98;100.00;101444.25;5081893;28;20491;-72
2023/09/13 07:21:37;;;;;;;3.60;0.80;;;;;;;18.58;100.00;101443.72;5096522;28;20047;-71
2023/09/13 07:24:04;;;;;;;3.90;0.77;;;;;;;18.41;100.00;101448.41;5104468;28;20055;-71
2023/09/13 07:26:31;;;;;;;0.63;0.60;;;;;;;18.48;100.00;101462.56;5086406;28;20233;-72
2023/09/13 07:28:57;;;;;;;1.48;0.65;;;;;;;18.40;100.00;101456.53;5085907;28;20116;-71
2023/09/13 07:31:24;;;;;;;1.60;0.60;;;;;;;18.34;100.00;101453.59;5083834;28;20926;-71
2023/09/13 07:33:50;;;;;;;1.95;0.70;;;;;;;18.27;100.00;101460.66;5086942;28;20040;-73
2023/09/13 07:36:17;;;;;;;3.35;2.08;;;;;;;18.24;100.00;101463.66;5090968;28;20176;-72
2023/09/13 07:38:44;;;;;;;1.65;0.55;;;;;;;18.14;100.00;101471.91;5092774;28;20050;-72
2023/09/13 07:41:12;;;;;;;3.17;0.80;;;;;;;18.21;100.00;101463.19;5094417;28;20079;-72
2023/09/13 07:43:39;;;;;;;2.22;0.52;;;;;;;18.09;100.00;101461.00;5098908;28;20873;-71
2023/09/13 07:46:06;;;;;;;1.92;0.70;;;;;;;18.20;100.00;101453.59;5090831;28;20596;-72
2023/09/13 07:48:32;;;;;;;1.85;0.77;;;;;;;18.23;100.00;101470.00;5097745;28;20112;-71
2023/09/13 07:50:59;;;;;;;1.63;0.70;;;;;;;18.21;100.00;101479.13;5094308;28;20094;-71
2023/09/13 07:53:25;;;;;;;2.67;0.73;;;;;;;18.26;100.00;101482.91;5076157;28;20056;-71
2023/09/13 07:55:52;;;;;;;1.80;0.68;;;;;;;18.36;100.00;101483.47;5086069;28;20043;-71
2023/09/13 07:58:18;;;;;;;2.92;0.70;;;;;;;18.48;100.00;101488.31;5093337;28;20056;-71
2023/09/13 08:00:46;;;;;;;2.25;0.90;;;;;;;18.38;100.00;101497.41;5103538;28;20548;-72
2023/09/13 08:03:13;;;;;;;0.93;0.60;;;;;;;18.34;100.00;101503.25;5096923;28;20415;-70
2023/09/13 08:05:39;;;;;;;1.05;0.80;;;;;;;18.39;100.00;101506.19;5092885;28;20063;-69
2023/09/13 08:08:07;;;;;;;1.38;0.70;;;;;;;18.36;100.00;101506.53;5086361;28;20142;-71
2023/09/13 08:10:33;;;;;;;2.47;0.80;;;;;;;18.32;100.00;101514.03;5094117;28;20460;-71
2023/09/13 08:13:00;;;;;;;2.05;0.80;;;;;;;18.33;100.00;101514.88;5090128;28;20080;-70
2023/09/13 08:15:27;;;;;;;2.42;0.90;;;;;;;18.30;100.00;101513.41;5101800;28;20131;-70
2023/09/13 08:18:13;;;;;;;1.42;0.80;;;;;;;18.41;100.00;101517.47;5088776;28;20059;-70
2023/09/13 08:20:40;;;;;;;3.13;0.70;;;;;;;18.49;100.00;101527.19;5090377;28;20142;-68
2023/09/13 08:23:06;;;;;;;2.58;0.70;;;;;;;18.56;100.00;101539.56;5086038;28;20086;-70
2023/09/13 08:25:33;;;;;;;1.67;0.77;;;;;;;18.65;100.00;101542.13;5094765;28;20044;-70
2023/09/13 08:27:59;;;;;;;1.75;0.70;;;;;;;18.71;100.00;101542.22;5096960;28;20051;-69
2023/09/13 08:30:26;;;;;;;2.22;0.90;;;;;;;18.76;100.00;101550.47;5096841;28;20051;-70
2023/09/13 08:32:52;;;;;;;5.20;0.90;;;;;;;18.76;100.00;101562.94;5093888;28;20104;-69
2023/09/13 08:35:19;;;;;;;1.55;0.70;;;;;;;18.81;100.00;101568.56;5082402;28;20051;-69
2023/09/13 08:37:45;;;;;;;1.15;0.70;;;;;;;18.85;100.00;101572.50;5105668;28;20052;-69
2023/09/13 08:40:12;;;;;;;2.42;0.98;;;;;;;18.83;100.00;101579.00;5090586;28;20067;-70
2023/09/13 08:42:42;;;;;;;2.13;0.73;;;;;;;18.89;100.00;101580.94;5106780;28;20333;-69
2023/09/13 08:45:09;;;;;;;2.42;1.00;;;;;;;19.00;100.00;101583.13;5101168;28;20044;-70
2023/09/13 08:47:41;;;;;;;2.60;0.80;;;;;;;19.06;100.00;101584.25;5101904;28;20158;-69
2023/09/13 08:50:27;;;;;;;1.35;0.73;;;;;;;19.13;100.00;101593.09;5090121;28;20051;-69
2023/09/13 08:52:55;;;;;;;1.30;0.70;;;;;;;19.14;100.00;101597.44;5088095;28;20128;-69
2023/09/13 08:55:22;;;;;;;1.30;0.85;;;;;;;19.13;100.00;101598.44;5092663;28;20408;-69
2023/09/13 08:57:50;;;;;;;1.65;0.63;;;;;;;19.09;100.00;101615.75;5079109;28;20058;-70
2023/09/13 09:00:16;;;;;;;2.92;0.82;;;;;;;19.13;100.00;101617.88;5087957;28;20054;-69
2023/09/13 09:02:44;;;;;;;1.17;0.60;;;;;;;19.21;100.00;101621.44;5075948;28;20416;-68
2023/09/13 09:05:14;;;;;;;1.88;0.80;;;;;;;19.26;100.00;101624.38;5084668;28;20071;-69
2023/09/13 09:07:43;;;;;;;2.75;0.73;;;;;;;19.18;100.00;101620.00;5088178;28;20056;-68
2023/09/13 09:10:12;;;;;;;1.77;0.85;;;;;;;19.40;100.00;101628.88;5101991;28;20166;-69
2023/09/13 09:12:41;;;;;;;2.95;0.77;;;;;;;19.59;100.00;101630.13;5099400;28;20055;-69
2023/09/13 09:15:10;;;;;;;2.42;1.00;;;;;;;19.69;100.00;101632.50;5088577;28;20047;-69
2023/09/13 09:17:37;;;;;;;2.65;0.88;;;;;;;19.88;100.00;101642.59;5088923;28;20132;-69
2023/09/13 09:20:04;;;;;;;1.45;0.70;;;;;;;20.00;100.00;101626.13;5080224;28;20051;-68
2023/09/13 09:22:32;;;;;;;4.78;1.05;;;;;;;20.12;100.00;101629.91;5098254;28;20056;-69
2023/09/13 09:25:03;;;;;;;2.80;1.00;;;;;;;20.23;100.00;101636.56;5079100;28;20050;-68
2023/09/13 09:27:29;;;;;;;2.60;0.90;;;;;;;20.37;100.00;101643.69;5093328;28;20551;-69
2023/09/13 09:30:00;;;;;;;3.50;1.00;;;;;;;20.59;100.00;101643.66;5097970;27;20058;-68
2023/09/13 09:32:28;;;;;;;1.90;0.70;;;;;;;20.68;100.00;101637.19;5081955;28;20043;-69
2023/09/13 09:34:57;;;;;;;3.88;1.00;;;;;;;20.82;100.00;101646.94;5091529;28;20047;-69
2023/09/13 09:37:32;;;;;;;2.45;0.93;;;;;;;20.99;100.00;101639.47;5081360;28;20048;-69
2023/09/13 09:39:59;;;;;;;2.55;1.00;;;;;;;21.09;100.00;101647.09;5087321;28;20556;-69
2023/09/13 09:42:25;;;;;;;3.17;1.00;;;;;;;21.12;100.00;101634.22;5076893;28;20481;-69
2023/09/13 09:44:52;;;;;;;3.00;0.95;;;;;;;21.30;100.00;101636.34;5078562;28;20051;-69
2023/09/13 09:47:20;;;;;;;3.22;1.00;;;;;;;21.38;99.82;101637.22;5089347;27;20462;-69
2023/09/13 09:49:47;;;;;;;1.90;0.60;;;;;;;21.56;100.00;101645.56;5093614;28;20067;-69
2023/09/13 09:52:15;;;;;;;4.35;0.90;;;;;;;21.74;96.07;101661.03;5093357;28;20048;-69
2023/09/13 09:54:50;;;;;;;2.25;1.20;;;;;;;22.04;96.67;101660.69;5090619;28;20040;-68
2023/09/13 09:57:25;;;;;;;2.33;0.93;;;;;;;22.27;93.75;101679.06;5091166;28;20094;-68
2023/09/13 09:59:52;;;;;;;2.40;0.80;;;;;;;22.21;91.21;101685.16;5074963;28;20055;-68
2023/09/13 10:02:27;;;;;;;2.42;0.88;;;;;;;22.37;91.40;101686.69;5091083;28;20626;-68
2023/09/13 10:04:54;;;;;;;2.60;0.70;;;;;;;22.29;90.61;101698.41;5081090;27;20520;-68
2023/09/13 10:07:20;;;;;;;2.40;0.80;;;;;;;22.24;88.51;101695.47;5089529;28;20101;-68
2023/09/13 10:09:47;;;;;;;1.98;0.80;;;;;;;22.24;91.55;101701.66;5093107;28;20083;-69
2023/09/13 10:12:15;;;;;;;3.00;0.90;;;;;;;22.24;87.26;101701.66;5081509;28;20161;-68
2023/09/13 10:14:44;;;;;;;1.02;0.77;;;;;;;22.20;88.52;101703.06;5092872;28;20044;-68
2023/09/13 10:17:11;;;;;;;2.30;0.95;;;;;;;22.08;87.54;101700.16;5084006;28;20459;-69
2023/09/13 10:19:41;;;;;;;4.13;0.93;;;;;;;21.99;88.81;101697.84;5086322;28;20048;-69
2023/09/13 10:22:13;;;;;;;3.05;1.15;;;;;;;21.84;90.10;101706.03;5080859;28;20070;-68
2023/09/13 10:24:50;;;;;;;3.17;1.20;;;;;;;21.99;85.81;101706.69;5080834;28;20295;-68
2023/09/13 10:27:19;;;;;;;2.90;1.13;;;;;;;21.99;87.27;101704.00;5080957;28;20530;-68
2023/09/13 10:29:54;;;;;;;2.47;1.23;;;;;;;22.00;90.76;101703.00;5077740;28;20575;-68
2023/09/13 10:32:26;;;;;;;3.00;1.20;;;;;;;22.00;90.29;101707.53;5091224;28;20055;-68
2023/09/13 10:34:54;;;;;;;3.90;1.20;;;;;;;21.92;92.20;101721.88;5094500;28;20519;-68
2023/09/13 10:37:29;;;;;;;;;;;;;;;22.07;84.04;101724.38;5085761;28;20052;-69
2023/09/13 10:40:10;;;;;;;2.47;1.23;;;;;;;22.10;83.85;101718.66;5071256;28;19931;-68
2023/09/13 10:42:40;;;;;;;2.83;1.20;;;;;;;22.19;86.87;101733.50;5083589;28;20052;-68
2023/09/13 10:45:08;;;;;;;5.38;1.63;;;;;;;22.09;81.56;101728.53;5081453;28;20040;-68
2023/09/13 10:47:36;;;;;;;4.45;1.45;;;;;;;22.04;82.82;101736.31;5083600;28;20504;-68
2023/09/13 10:50:06;;;;;;;4.85;1.42;;;;;;;21.82;79.47;101743.63;5090713;28;20044;-70
2023/09/13 10:52:34;;;;;;;4.40;1.33;;;;;;;21.90;84.63;101745.31;5081044;28;20052;-68
2023/09/13 10:55:05;;;;;;;3.70;1.60;;;;;;;21.98;84.00;101738.97;5082656;28;20456;-68
2023/09/13 10:57:32;;;;;;;4.47;1.33;;;;;;;22.18;81.74;101752.38;5085907;28;20040;-68
2023/09/13 11:00:09;;;;;;;4.47;1.50;;;;;;;22.11;80.31;101755.06;5084384;28;20044;-70
2023/09/13 11:02:37;;;;;;;5.30;1.58;;;;;;;22.04;81.91;101764.88;5091433;28;20105;-68
2023/09/13 11:05:05;;;;;;;22.25;13.68;;;;;;;21.98;84.03;101761.16;5095623;28;20063;-67
2023/09/13 11:07:32;;;;;;;5.93;2.25;;;;;;;21.87;80.53;101769.72;5090320;28;20055;-69
2023/09/13 11:10:06;;;;;;;4.75;1.35;;;;;;;21.85;80.29;101769.91;5077139;28;20131;-69
2023/09/13 11:12:36;;;;;;;2.50;1.20;;;;;;;22.07;81.60;101765.31;5088814;28;20054;-69